Terminal Aerodrome Forecast
Issued by NWS Houston/Galveston, TX

Home | Current Version | Previous Version | Text Only | Print | Product List | Glossary On
Versions: 1 2 3 4 5 6 7 8 9 10 11 12 13 14 15 16 17 18 19 20 21 22 23 24 25 26 27 28 29 30 31 32 33 34 35 36 37 38 39 40 41 42 43 44 45 46 47
000
FTUS44 KHGX 302144 AAA
TAFCLL
TAF AMD
KCLL 302144Z 3022/0118 17005KT P6SM -TSRA SCT020 BKN040CB
      TEMPO 3022/3024 VRB15G25KT 2SM +TSRA SCT015 OVC030CB
     FM010000 17008KT P6SM FEW050 SCT150
     FM011100 18004KT P6SM MIFG SCT008
     FM011400 20011KT P6SM FEW030 SCT250=

USA.gov is the U.S. government's official web portal to all federal, state and local government web resources and services.